To NAV CANADA Home Page Login to a new session Search on AWWS site Feedback and Comments Disclaimer Vers la page française équivalente Tips FAQ What's new on the site To the Forecasts and Observations / NOTAM section To "File a Flight Plan" website Publications and other links Update of the User's profile FIC Telephone Numbers My Weather Data Folder Route Weather Data Regional Weather Data Local Weather Data To the Forecasts and Observations / NOTAM section
Request Generated 02/13/2016 at 19:09:54 UTC . Weather information available at that time is displayed.

METAR/TAF

MARYS HARBOUR/NL    (show WxCam)

METAR CYMH 131900Z AUTO 08004KT 9SM CLR M12/M18 A2979 RMK SLP090=
METAR CYMH 131800Z AUTO 07006KT 9SM CLR M12/M18 A2977 RMK SLP084=
METAR CYMH 131700Z AUTO 33004KT 300V020 9SM CLR M11/M17 A2978 RMK
SLP085=

TAF CYMH 131338Z 1314/1402 23008KT P6SM SKC
BECMG 1318/1320 VRB03KT
RMK FCST BASED ON AUTO OBS. NXT FCST BY 132000Z=
Your time UTC time
Weather data provided by Environment Canada and NAV CANADA